Niagara Falls, NY (14303)

6:52 PM EDT on August 31, 2016 (GMT -0400)
| | Change Station

Elev -9999 ft 0.00 °N, 0.00 °E | Updated

Mostly Cloudy
Mostly Cloudy
71 °F
Feels Like 71 °F
N
10
Wind Variable Wind from NNW
Gusts 16 mph

Today
High -- | Low -- °F
--% Chance of Precip.
Yesterday
High -- | Low -- °F
Precip. -- in
Pressure 29.88 in
Visibility 10.0 miles
Clouds Few 2800 ft
Scattered Clouds 9000 ft
Mostly Cloudy 11000 ft
Mostly Cloudy 30000 ft
Dew Point 60 °F
Humidity 68%
Rainfall --
Snow Depth Not available.
6:39 AM 7:51 PM
Waning Crescent, 0% visible
METAR KIAG 312153Z 22007KT 10SM FEW028 SCT090 BKN110 BKN300 23/19 A2989 RMK AO2 TSE20 SLP116 OCNL LTGCCCG DSNT S CB DSNT S MOV SE TCU DSNT NE T02280189
Pressure 29.88 in
Visibility 10.0 miles
Clouds Few 2800 ft
Scattered Clouds 9000 ft
Mostly Cloudy 11000 ft
Mostly Cloudy 30000 ft
Dew Point 60 °F
Humidity 68%
Rainfall --
Snow Depth Not available.
6:39 AM 7:51 PM
Waning Crescent, 0% visible
METAR KIAG 312153Z 22007KT 10SM FEW028 SCT090 BKN110 BKN300 23/19 A2989 RMK AO2 TSE20 SLP116 OCNL LTGCCCG DSNT S CB DSNT S MOV SE TCU DSNT NE T02280189

10-Day Weather Forecast

Almanac

Astronomy

Aug. 31, 2016 Rise Set
Actual Time
Civil Twilight
Nautical Twilight
Astronomical Twilight
Moon
Length of Visible Light
Length of Day
Tomorrow will be .
, % of the Moon is Illuminated

Today's Extremes

State Highs State Lows

Community

WunderPhotos

Upload Photos

1,936,204 photos uploaded!

WunderBlog® & News

Nearby

Air Quality

  Air Quality AQ Index Pollutant
Not available.

Snow Depth

Station Depth Elevation

Earthquake Activity

City Distance Mag. Time & Date
Minimum magnitude displayed is 2.5.

Coastal Water Temperatures

Place Temperature

Stations

Nearby Weather Stations

Station Location Temp. Windchill Dew Point Humidity Wind Precip. Elev Updated Type
                   

Watches & Warnings

There are currently no watches in effect.